Etusivu
METAR-TAF:

METAR-TAF

Lentoasemat :

Laghouat, Algeria

Leveyspiiri: 33-46N, Pituuspiiri: 002-56E, korkeus merenpinnasta: 765 m

Tämänhetkinen sää

Tämä raportti tehtiin 58 minuuttia sitten, kello 11.00 UTC
Tuuli 8 kn idästä/koillisesta
Lämpötila 21°C
Kosteus 26%
Ilmanpaine 1012 hPa
Näkyvyys: 8000 m

METAR: DAUL 011100Z 06008KT 8000 NSC 21/01 Q1012

Aika: 12:58 (11:58 UTC)

Sääennuste

Tämä raportti tehtiin 3 tuntia ja 58 minuuttia sitten, kello 08.00 UTC
Ennuste voimassa 01. päivästä klo 09 UTC - 01. päivään klo 18 UTC
Tuuli 14 kn idästä
Näkyvyys 10 km tai enemmän
ei pilviä alle 1500 m:ssä eikä cumulonimbus-pilviä
Tulossa
01. päivästä klo 12 UTC - 01. päivään klo 15 UTC
Tuuli 14 kn pohjoisen/luoteesta

TAF: DAUL 010800Z 0109/0118 08014KT CAVOK BECMG 0112/0115 34014KT

Säähavainnot ja -ennusteet yli 4000 lentoasemalta (METAR- ja TAF-raportit).

Käytössä olevat sääasemat on merkitty karttaan keltaisilla ja punaisilla pisteillä.

Aseta hiiri pisteen päälle nähdäksesi sääaseman nimen.

Klikkaa sitten nähdäksesi säähavainnot ja -ennusteet.

Kartan vaihtaminen: klikkaa mustalla rastilla varustettuja vihreitä pisteitä, niin voit zoomata sisään; viivalla varustettua vihreää pistettä, niin voit zoomata ulos tai vihreitä nuolia, niin pääset viereisille kartoille.


METAR-TAF: